createdAt,value
2023-03-21T00:06:19.757Z,100567.28
2023-03-21T00:16:29.836Z,100554.63
2023-03-21T00:26:36.368Z,100547.91
2023-03-21T00:36:40.084Z,100536.56
2023-03-21T00:46:57.414Z,100524.53
2023-03-21T00:57:08.740Z,100517.34
2023-03-21T01:07:13.630Z,100506.06
2023-03-21T01:17:17.252Z,100507.66
2023-03-21T01:27:22.440Z,100500.53
2023-03-21T01:37:26.591Z,100509.66
2023-03-21T01:47:31.607Z,100501.47
2023-03-21T01:57:47.374Z,100502.88
2023-03-21T02:08:01.928Z,100494.22
2023-03-21T02:18:14.089Z,100483.25
2023-03-21T02:28:23.304Z,100471.63
2023-03-21T02:38:33.761Z,100472.03
2023-03-21T02:48:50.257Z,100466.91
2023-03-21T02:58:55.907Z,100474.31
2023-03-21T03:09:22.823Z,100459.09
2023-03-21T03:19:32.713Z,100456.91
2023-03-21T03:29:41.742Z,100449.50
2023-03-21T03:39:51.372Z,100461.31
2023-03-21T03:50:03.761Z,100458.44
2023-03-21T04:00:13.085Z,100458.00
2023-03-21T04:10:17.103Z,100450.13
2023-03-21T04:20:34.131Z,100449.78
2023-03-21T04:30:43.392Z,100438.31
2023-03-21T04:40:54.406Z,100439.91
2023-03-21T04:50:57.968Z,100436.50
2023-03-21T05:01:05.842Z,100435.03
2023-03-21T05:11:09.781Z,100444.44
2023-03-21T05:21:18.233Z,100436.63
2023-03-21T05:31:22.556Z,100436.06
2023-03-21T05:41:27.509Z,100428.06
2023-03-21T05:51:31.090Z,100430.69
2023-03-21T06:01:36.058Z,100429.78
2023-03-21T06:11:44.731Z,100431.50
2023-03-21T06:21:50.155Z,100432.44
2023-03-21T06:31:53.937Z,100430.91
2023-03-21T06:41:59.236Z,100440.19
2023-03-21T06:52:03.071Z,100438.56
2023-03-21T07:02:08.429Z,100438.41
2023-03-21T07:12:12.206Z,100435.66
2023-03-21T07:22:17.210Z,100424.53
2023-03-21T07:32:20.994Z,100425.03
2023-03-21T07:42:26.138Z,100413.25
2023-03-21T07:52:29.760Z,100414.38
2023-03-21T08:02:34.864Z,100418.38
2023-03-21T08:12:38.606Z,100411.38
2023-03-21T08:22:44.577Z,100402.00
2023-03-21T08:32:48.726Z,100394.66
2023-03-21T08:42:53.756Z,100393.19
2023-03-21T08:52:57.499Z,100393.91
2023-03-21T09:03:05.239Z,100384.34
2023-03-21T09:13:09.297Z,100377.09
2023-03-21T09:23:15.759Z,100377.34
2023-03-21T09:33:21.224Z,100369.34
2023-03-21T09:43:40.668Z,100367.81
2023-03-21T09:53:48.766Z,100382.50
2023-03-21T10:03:54.745Z,100384.06
2023-03-21T10:14:03.273Z,100380.75
2023-03-21T10:24:12.697Z,100378.13
2023-03-21T10:34:21.241Z,100367.47
2023-03-21T10:44:31.815Z,100362.06
2023-03-21T10:54:36.707Z,100356.47
2023-03-21T11:04:44.707Z,100363.00
2023-03-21T11:14:52.135Z,100368.38
2023-03-21T11:25:01.174Z,100370.50
2023-03-21T11:35:09.243Z,100376.50
2023-03-21T11:45:18.513Z,100376.06
2023-03-21T11:55:42.031Z,100373.00
2023-03-21T12:05:54.663Z,100368.78
2023-03-21T12:16:10.507Z,100368.41
2023-03-21T12:26:24.223Z,100361.06
2023-03-21T12:36:49.107Z,100354.72
2023-03-21T12:47:00.406Z,100341.81
2023-03-21T12:57:10.216Z,100322.88
2023-03-21T13:07:20.027Z,100307.75
2023-03-21T13:17:33.641Z,100312.00
2023-03-21T13:27:41.019Z,100306.25
2023-03-21T13:37:55.509Z,100305.94
2023-03-21T13:48:04.295Z,100285.00
2023-03-21T13:58:33.730Z,100287.38
2023-03-21T14:08:42.126Z,100280.94
2023-03-21T14:18:54.222Z,100269.94
2023-03-21T14:29:00.814Z,100264.78
2023-03-21T14:39:11.892Z,100255.38
2023-03-21T14:49:23.552Z,100235.94
2023-03-21T14:59:32.702Z,100225.41
2023-03-21T15:09:37.813Z,100214.72
2023-03-21T15:19:43.570Z,100214.84
2023-03-21T15:29:54.772Z,100214.03
2023-03-21T15:40:11.305Z,100203.38
2023-03-21T15:50:27.999Z,100187.09
2023-03-21T16:00:40.083Z,100185.69
2023-03-21T16:10:45.574Z,100199.59
2023-03-21T16:20:50.128Z,100191.16
2023-03-21T16:30:55.234Z,100180.22
2023-03-21T16:41:00.841Z,100173.34
2023-03-21T16:51:06.319Z,100173.50
2023-03-21T17:01:16.042Z,100187.84
2023-03-21T17:11:23.733Z,100184.66
2023-03-21T17:21:30.276Z,100164.22
2023-03-21T17:31:38.024Z,100155.22
2023-03-21T17:41:42.081Z,100147.44
2023-03-21T17:51:47.229Z,100153.53
2023-03-21T18:01:50.885Z,100151.13
2023-03-21T18:11:56.030Z,100153.66
2023-03-21T18:21:59.690Z,100167.69
2023-03-21T18:32:07.547Z,100174.28
2023-03-21T18:42:17.738Z,100176.13
2023-03-21T18:52:27.198Z,100175.66
2023-03-21T19:02:30.934Z,100194.66
2023-03-21T19:12:36.001Z,100206.56
2023-03-21T19:22:39.633Z,100198.91
2023-03-21T19:32:45.245Z,100181.84
2023-03-21T19:42:49.013Z,100181.44
2023-03-21T19:52:54.221Z,100169.88
2023-03-21T20:02:58.120Z,100195.25
2023-03-21T20:13:03.171Z,100186.38
2023-03-21T20:23:08.548Z,100187.63
2023-03-21T20:33:15.622Z,100197.16
2023-03-21T20:44:12.216Z,100193.41
2023-03-21T20:53:45.332Z,100182.75
2023-03-21T21:03:49.477Z,100190.81
2023-03-21T21:13:55.928Z,100174.81
2023-03-21T21:23:59.802Z,100172.91
2023-03-21T21:34:06.145Z,100170.88
2023-03-21T21:44:10.957Z,100183.84
2023-03-21T21:54:18.149Z,100173.69
2023-03-21T22:04:27.410Z,100159.19
2023-03-21T22:14:32.329Z,100167.03
2023-03-21T22:24:37.357Z,100163.66
2023-03-21T22:34:42.483Z,100150.56
2023-03-21T22:44:49.623Z,100149.41
2023-03-21T22:54:54.739Z,100154.56
2023-03-21T23:04:58.321Z,100136.81
2023-03-21T23:15:03.369Z,100154.03
2023-03-21T23:25:08.554Z,100139.41
2023-03-21T23:35:13.943Z,100145.00
2023-03-21T23:45:17.834Z,100138.59
2023-03-21T23:55:22.717Z,100138.06
